sensor_id;sensor_type;location;lat;lon;timestamp;P1;durP1;ratioP1;P2;durP2;ratioP2
42668;SDS011;29384;42.028;21.388;2022-07-10T00:01:55;5.03;;;2.30;;
42668;SDS011;29384;42.028;21.388;2022-07-10T00:04:21;5.22;;;1.90;;
42668;SDS011;29384;42.028;21.388;2022-07-10T00:06:46;10.73;;;2.78;;
42668;SDS011;29384;42.028;21.388;2022-07-10T00:09:12;2.30;;;2.17;;
42668;SDS011;29384;42.028;21.388;2022-07-10T00:11:39;3.70;;;2.10;;
42668;SDS011;29384;42.028;21.388;2022-07-10T00:14:05;3.10;;;2.25;;
42668;SDS011;29384;42.028;21.388;2022-07-10T00:16:30;2.42;;;1.52;;
42668;SDS011;29384;42.028;21.388;2022-07-10T00:18:56;3.80;;;1.83;;
42668;SDS011;29384;42.028;21.388;2022-07-10T00:21:21;1.48;;;1.38;;
42668;SDS011;29384;42.028;21.388;2022-07-10T00:23:47;1.35;;;1.35;;
42668;SDS011;29384;42.028;21.388;2022-07-10T00:26:12;1.88;;;1.77;;
42668;SDS011;29384;42.028;21.388;2022-07-10T00:28:38;2.30;;;1.75;;
42668;SDS011;29384;42.028;21.388;2022-07-10T00:31:04;1.48;;;1.30;;
42668;SDS011;29384;42.028;21.388;2022-07-10T00:33:29;3.50;;;1.77;;
42668;SDS011;29384;42.028;21.388;2022-07-10T00:35:57;1.65;;;1.40;;
42668;SDS011;29384;42.028;21.388;2022-07-10T00:38:23;1.98;;;1.60;;
42668;SDS011;29384;42.028;21.388;2022-07-10T00:40:49;5.28;;;1.88;;
42668;SDS011;29384;42.028;21.388;2022-07-10T00:43:14;5.00;;;2.15;;
42668;SDS011;29384;42.028;21.388;2022-07-10T00:45:40;1.83;;;1.73;;
42668;SDS011;29384;42.028;21.388;2022-07-10T00:48:05;2.00;;;1.90;;
42668;SDS011;29384;42.028;21.388;2022-07-10T00:50:31;1.38;;;1.38;;
42668;SDS011;29384;42.028;21.388;2022-07-10T00:52:58;2.05;;;1.50;;
42668;SDS011;29384;42.028;21.388;2022-07-10T00:55:24;3.13;;;2.25;;
42668;SDS011;29384;42.028;21.388;2022-07-10T00:57:50;4.00;;;1.40;;
42668;SDS011;29384;42.028;21.388;2022-07-10T01:00:15;1.60;;;1.50;;
42668;SDS011;29384;42.028;21.388;2022-07-10T01:02:41;3.85;;;2.00;;
42668;SDS011;29384;42.028;21.388;2022-07-10T01:05:09;2.80;;;2.60;;
42668;SDS011;29384;42.028;21.388;2022-07-10T01:07:35;8.35;;;2.45;;
42668;SDS011;29384;42.028;21.388;2022-07-10T01:10:02;8.70;;;2.88;;
42668;SDS011;29384;42.028;21.388;2022-07-10T01:12:28;3.13;;;2.17;;
42668;SDS011;29384;42.028;21.388;2022-07-10T01:14:54;2.17;;;2.08;;
42668;SDS011;29384;42.028;21.388;2022-07-10T01:17:20;5.22;;;2.65;;
42668;SDS011;29384;42.028;21.388;2022-07-10T01:19:45;5.65;;;2.50;;
42668;SDS011;29384;42.028;21.388;2022-07-10T01:22:11;2.90;;;2.70;;
42668;SDS011;29384;42.028;21.388;2022-07-10T01:24:36;2.22;;;2.08;;
42668;SDS011;29384;42.028;21.388;2022-07-10T01:27:02;2.13;;;1.98;;
42668;SDS011;29384;42.028;21.388;2022-07-10T01:29:28;6.70;;;2.80;;
42668;SDS011;29384;42.028;21.388;2022-07-10T01:31:54;1.88;;;1.88;;
42668;SDS011;29384;42.028;21.388;2022-07-10T01:34:20;2.22;;;2.22;;
42668;SDS011;29384;42.028;21.388;2022-07-10T01:36:46;3.63;;;2.55;;
42668;SDS011;29384;42.028;21.388;2022-07-10T01:39:12;2.17;;;1.98;;
42668;SDS011;29384;42.028;21.388;2022-07-10T01:41:38;3.55;;;2.05;;
42668;SDS011;29384;42.028;21.388;2022-07-10T01:44:04;3.00;;;2.70;;
42668;SDS011;29384;42.028;21.388;2022-07-10T01:46:29;8.20;;;2.88;;
42668;SDS011;29384;42.028;21.388;2022-07-10T01:48:55;5.18;;;2.85;;
42668;SDS011;29384;42.028;21.388;2022-07-10T01:51:21;1.83;;;1.80;;
42668;SDS011;29384;42.028;21.388;2022-07-10T01:53:47;15.00;;;2.60;;
42668;SDS011;29384;42.028;21.388;2022-07-10T01:56:13;2.22;;;2.03;;
42668;SDS011;29384;42.028;21.388;2022-07-10T01:58:39;7.43;;;1.80;;
42668;SDS011;29384;42.028;21.388;2022-07-10T02:01:06;7.28;;;2.42;;
42668;SDS011;29384;42.028;21.388;2022-07-10T02:03:32;2.25;;;2.10;;
42668;SDS011;29384;42.028;21.388;2022-07-10T02:08:41;1.85;;;1.75;;
42668;SDS011;29384;42.028;21.388;2022-07-10T02:11:07;4.15;;;1.52;;
42668;SDS011;29384;42.028;21.388;2022-07-10T02:13:33;1.40;;;1.30;;
42668;SDS011;29384;42.028;21.388;2022-07-10T02:15:58;4.10;;;1.95;;
42668;SDS011;29384;42.028;21.388;2022-07-10T02:18:24;1.58;;;1.58;;
42668;SDS011;29384;42.028;21.388;2022-07-10T02:20:50;2.47;;;1.95;;
42668;SDS011;29384;42.028;21.388;2022-07-10T02:23:16;2.83;;;2.17;;
42668;SDS011;29384;42.028;21.388;2022-07-10T02:25:42;1.42;;;1.33;;
42668;SDS011;29384;42.028;21.388;2022-07-10T02:28:08;5.70;;;1.77;;
42668;SDS011;29384;42.028;21.388;2022-07-10T02:30:34;4.18;;;1.75;;
42668;SDS011;29384;42.028;21.388;2022-07-10T02:33:00;1.00;;;1.00;;
42668;SDS011;29384;42.028;21.388;2022-07-10T02:35:25;1.73;;;1.42;;
42668;SDS011;29384;42.028;21.388;2022-07-10T02:37:51;4.15;;;1.38;;
42668;SDS011;29384;42.028;21.388;2022-07-10T02:40:16;4.93;;;1.48;;
42668;SDS011;29384;42.028;21.388;2022-07-10T02:42:42;2.00;;;1.52;;
42668;SDS011;29384;42.028;21.388;2022-07-10T02:45:08;2.03;;;1.33;;
42668;SDS011;29384;42.028;21.388;2022-07-10T02:47:33;9.40;;;2.13;;
42668;SDS011;29384;42.028;21.388;2022-07-10T02:49:59;1.73;;;1.63;;
42668;SDS011;29384;42.028;21.388;2022-07-10T02:52:24;1.23;;;1.23;;
42668;SDS011;29384;42.028;21.388;2022-07-10T02:54:50;5.50;;;1.50;;
42668;SDS011;29384;42.028;21.388;2022-07-10T02:57:16;1.20;;;1.20;;
42668;SDS011;29384;42.028;21.388;2022-07-10T02:59:42;1.25;;;1.15;;
42668;SDS011;29384;42.028;21.388;2022-07-10T03:02:07;2.03;;;1.38;;
42668;SDS011;29384;42.028;21.388;2022-07-10T03:04:33;1.17;;;1.17;;
42668;SDS011;29384;42.028;21.388;2022-07-10T03:06:58;1.60;;;1.35;;
42668;SDS011;29384;42.028;21.388;2022-07-10T03:09:24;23.58;;;1.75;;
42668;SDS011;29384;42.028;21.388;2022-07-10T03:11:50;1.40;;;1.30;;
42668;SDS011;29384;42.028;21.388;2022-07-10T03:14:16;4.72;;;1.75;;
42668;SDS011;29384;42.028;21.388;2022-07-10T03:16:42;1.33;;;1.23;;
42668;SDS011;29384;42.028;21.388;2022-07-10T03:19:08;3.80;;;1.50;;
42668;SDS011;29384;42.028;21.388;2022-07-10T03:21:33;1.55;;;1.45;;
42668;SDS011;29384;42.028;21.388;2022-07-10T03:23:59;1.52;;;1.52;;
42668;SDS011;29384;42.028;21.388;2022-07-10T03:26:25;0.82;;;0.82;;
42668;SDS011;29384;42.028;21.388;2022-07-10T03:28:51;1.20;;;1.20;;
42668;SDS011;29384;42.028;21.388;2022-07-10T03:31:17;1.77;;;1.40;;
42668;SDS011;29384;42.028;21.388;2022-07-10T03:33:42;2.13;;;0.98;;
42668;SDS011;29384;42.028;21.388;2022-07-10T03:36:08;2.47;;;1.50;;
42668;SDS011;29384;42.028;21.388;2022-07-10T03:38:33;1.50;;;1.00;;
42668;SDS011;29384;42.028;21.388;2022-07-10T03:40:59;2.72;;;1.67;;
42668;SDS011;29384;42.028;21.388;2022-07-10T03:43:24;2.20;;;1.80;;
42668;SDS011;29384;42.028;21.388;2022-07-10T03:45:50;2.85;;;2.20;;
42668;SDS011;29384;42.028;21.388;2022-07-10T03:48:16;11.27;;;1.25;;
42668;SDS011;29384;42.028;21.388;2022-07-10T03:50:42;7.15;;;1.20;;
42668;SDS011;29384;42.028;21.388;2022-07-10T03:53:07;4.18;;;1.50;;
42668;SDS011;29384;42.028;21.388;2022-07-10T03:55:33;1.40;;;1.00;;
42668;SDS011;29384;42.028;21.388;2022-07-10T03:57:58;2.95;;;1.20;;
42668;SDS011;29384;42.028;21.388;2022-07-10T04:00:27;1.35;;;1.35;;
42668;SDS011;29384;42.028;21.388;2022-07-10T04:02:57;2.55;;;1.80;;
42668;SDS011;29384;42.028;21.388;2022-07-10T04:05:24;2.33;;;2.22;;
42668;SDS011;29384;42.028;21.388;2022-07-10T04:07:50;5.90;;;2.65;;
42668;SDS011;29384;42.028;21.388;2022-07-10T04:10:15;4.15;;;2.42;;
42668;SDS011;29384;42.028;21.388;2022-07-10T04:12:41;3.42;;;2.25;;
42668;SDS011;29384;42.028;21.388;2022-07-10T04:15:07;1.80;;;1.70;;
42668;SDS011;29384;42.028;21.388;2022-07-10T04:17:33;5.65;;;2.40;;
42668;SDS011;29384;42.028;21.388;2022-07-10T04:19:59;15.50;;;2.10;;
42668;SDS011;29384;42.028;21.388;2022-07-10T04:22:25;2.05;;;1.95;;
42668;SDS011;29384;42.028;21.388;2022-07-10T04:24:52;2.28;;;2.15;;
42668;SDS011;29384;42.028;21.388;2022-07-10T04:27:17;1.55;;;1.40;;
42668;SDS011;29384;42.028;21.388;2022-07-10T04:29:43;6.22;;;2.13;;
42668;SDS011;29384;42.028;21.388;2022-07-10T04:32:08;26.48;;;3.78;;
42668;SDS011;29384;42.028;21.388;2022-07-10T04:34:34;2.67;;;2.47;;
42668;SDS011;29384;42.028;21.388;2022-07-10T04:36:59;4.22;;;1.67;;
42668;SDS011;29384;42.028;21.388;2022-07-10T04:39:25;4.22;;;1.70;;
42668;SDS011;29384;42.028;21.388;2022-07-10T04:41:51;3.13;;;1.25;;
42668;SDS011;29384;42.028;21.388;2022-07-10T04:44:17;1.65;;;1.52;;
42668;SDS011;29384;42.028;21.388;2022-07-10T04:46:43;3.13;;;1.70;;
42668;SDS011;29384;42.028;21.388;2022-07-10T04:49:08;5.30;;;1.80;;
42668;SDS011;29384;42.028;21.388;2022-07-10T04:51:34;1.92;;;1.83;;
42668;SDS011;29384;42.028;21.388;2022-07-10T04:54:00;3.85;;;2.08;;
42668;SDS011;29384;42.028;21.388;2022-07-10T04:56:26;3.88;;;1.67;;
42668;SDS011;29384;42.028;21.388;2022-07-10T04:58:51;5.15;;;1.38;;
42668;SDS011;29384;42.028;21.388;2022-07-10T05:01:17;1.27;;;1.27;;
42668;SDS011;29384;42.028;21.388;2022-07-10T05:03:42;2.25;;;1.30;;
42668;SDS011;29384;42.028;21.388;2022-07-10T05:06:08;1.10;;;1.10;;
42668;SDS011;29384;42.028;21.388;2022-07-10T05:08:33;4.28;;;1.17;;
42668;SDS011;29384;42.028;21.388;2022-07-10T05:10:59;1.50;;;1.40;;
42668;SDS011;29384;42.028;21.388;2022-07-10T05:13:25;16.30;;;1.65;;
42668;SDS011;29384;42.028;21.388;2022-07-10T05:15:50;1.42;;;1.42;;
42668;SDS011;29384;42.028;21.388;2022-07-10T05:18:16;2.95;;;0.90;;
42668;SDS011;29384;42.028;21.388;2022-07-10T05:20:42;1.55;;;1.00;;
42668;SDS011;29384;42.028;21.388;2022-07-10T05:23:09;2.83;;;2.58;;
42668;SDS011;29384;42.028;21.388;2022-07-10T05:25:36;5.13;;;2.80;;
42668;SDS011;29384;42.028;21.388;2022-07-10T05:28:05;6.93;;;2.13;;
42668;SDS011;29384;42.028;21.388;2022-07-10T05:30:31;2.15;;;1.67;;
42668;SDS011;29384;42.028;21.388;2022-07-10T05:32:57;2.45;;;1.85;;
42668;SDS011;29384;42.028;21.388;2022-07-10T05:35:22;1.65;;;1.50;;
42668;SDS011;29384;42.028;21.388;2022-07-10T05:37:48;1.23;;;0.88;;
42668;SDS011;29384;42.028;21.388;2022-07-10T05:40:13;6.07;;;1.33;;
42668;SDS011;29384;42.028;21.388;2022-07-10T05:42:39;2.05;;;0.93;;
42668;SDS011;29384;42.028;21.388;2022-07-10T05:45:05;3.63;;;1.13;;
42668;SDS011;29384;42.028;21.388;2022-07-10T05:47:31;8.27;;;1.15;;
42668;SDS011;29384;42.028;21.388;2022-07-10T05:49:58;1.10;;;1.02;;
42668;SDS011;29384;42.028;21.388;2022-07-10T05:52:24;4.13;;;1.77;;
42668;SDS011;29384;42.028;21.388;2022-07-10T05:54:50;4.47;;;1.92;;
42668;SDS011;29384;42.028;21.388;2022-07-10T05:57:16;2.60;;;1.10;;
42668;SDS011;29384;42.028;21.388;2022-07-10T05:59:42;8.40;;;1.85;;
42668;SDS011;29384;42.028;21.388;2022-07-10T06:02:07;2.33;;;1.38;;
42668;SDS011;29384;42.028;21.388;2022-07-10T06:04:33;7.03;;;1.23;;
42668;SDS011;29384;42.028;21.388;2022-07-10T06:06:59;0.70;;;0.60;;
42668;SDS011;29384;42.028;21.388;2022-07-10T06:09:24;1.77;;;0.95;;
42668;SDS011;29384;42.028;21.388;2022-07-10T06:11:50;4.97;;;1.00;;
42668;SDS011;29384;42.028;21.388;2022-07-10T06:14:15;2.33;;;0.70;;
42668;SDS011;29384;42.028;21.388;2022-07-10T06:16:41;2.25;;;0.82;;
42668;SDS011;29384;42.028;21.388;2022-07-10T06:19:06;3.70;;;1.02;;
42668;SDS011;29384;42.028;21.388;2022-07-10T06:21:32;1.48;;;0.93;;
42668;SDS011;29384;42.028;21.388;2022-07-10T06:23:58;1.77;;;1.27;;
42668;SDS011;29384;42.028;21.388;2022-07-10T06:26:23;2.35;;;1.20;;
42668;SDS011;29384;42.028;21.388;2022-07-10T06:28:49;6.13;;;1.15;;
42668;SDS011;29384;42.028;21.388;2022-07-10T06:31:15;4.10;;;1.58;;
42668;SDS011;29384;42.028;21.388;2022-07-10T06:33:41;2.58;;;1.30;;
42668;SDS011;29384;42.028;21.388;2022-07-10T06:36:07;23.75;;;0.90;;
42668;SDS011;29384;42.028;21.388;2022-07-10T06:38:32;3.25;;;1.25;;
42668;SDS011;29384;42.028;21.388;2022-07-10T06:40:58;1.40;;;1.30;;
42668;SDS011;29384;42.028;21.388;2022-07-10T06:43:24;1.08;;;1.00;;
42668;SDS011;29384;42.028;21.388;2022-07-10T06:45:49;6.95;;;1.40;;
42668;SDS011;29384;42.028;21.388;2022-07-10T06:48:15;3.47;;;1.30;;
42668;SDS011;29384;42.028;21.388;2022-07-10T06:50:41;7.13;;;1.33;;
42668;SDS011;29384;42.028;21.388;2022-07-10T06:53:07;4.28;;;0.80;;
42668;SDS011;29384;42.028;21.388;2022-07-10T06:55:33;2.63;;;1.55;;
42668;SDS011;29384;42.028;21.388;2022-07-10T06:57:59;5.30;;;1.77;;
42668;SDS011;29384;42.028;21.388;2022-07-10T07:00:25;2.08;;;0.90;;
42668;SDS011;29384;42.028;21.388;2022-07-10T07:02:51;6.88;;;1.23;;
42668;SDS011;29384;42.028;21.388;2022-07-10T07:05:17;4.78;;;0.93;;
42668;SDS011;29384;42.028;21.388;2022-07-10T07:07:42;8.68;;;1.27;;
42668;SDS011;29384;42.028;21.388;2022-07-10T07:10:08;4.13;;;1.30;;
42668;SDS011;29384;42.028;21.388;2022-07-10T07:12:35;4.88;;;0.80;;
42668;SDS011;29384;42.028;21.388;2022-07-10T07:15:00;5.05;;;1.10;;
42668;SDS011;29384;42.028;21.388;2022-07-10T07:17:26;3.17;;;1.10;;
42668;SDS011;29384;42.028;21.388;2022-07-10T07:19:59;1.50;;;0.80;;
42668;SDS011;29384;42.028;21.388;2022-07-10T07:22:44;2.30;;;0.60;;
42668;SDS011;29384;42.028;21.388;2022-07-10T07:25:28;3.38;;;1.45;;
42668;SDS011;29384;42.028;21.388;2022-07-10T07:27:53;4.80;;;1.35;;
42668;SDS011;29384;42.028;21.388;2022-07-10T07:30:19;2.10;;;0.60;;
42668;SDS011;29384;42.028;21.388;2022-07-10T07:32:45;1.10;;;0.98;;
42668;SDS011;29384;42.028;21.388;2022-07-10T07:35:12;2.70;;;0.77;;
42668;SDS011;29384;42.028;21.388;2022-07-10T07:37:39;4.40;;;1.27;;
42668;SDS011;29384;42.028;21.388;2022-07-10T07:40:08;0.88;;;0.88;;
42668;SDS011;29384;42.028;21.388;2022-07-10T07:42:35;0.88;;;0.88;;
42668;SDS011;29384;42.028;21.388;2022-07-10T07:45:02;3.00;;;1.35;;
42668;SDS011;29384;42.028;21.388;2022-07-10T07:47:29;6.25;;;0.80;;
42668;SDS011;29384;42.028;21.388;2022-07-10T07:49:55;1.73;;;0.60;;
42668;SDS011;29384;42.028;21.388;2022-07-10T07:52:20;2.42;;;1.08;;
42668;SDS011;29384;42.028;21.388;2022-07-10T07:54:47;1.08;;;1.08;;
42668;SDS011;29384;42.028;21.388;2022-07-10T07:57:13;1.95;;;1.15;;
42668;SDS011;29384;42.028;21.388;2022-07-10T07:59:39;2.70;;;1.00;;
42668;SDS011;29384;42.028;21.388;2022-07-10T08:02:05;0.70;;;0.70;;
42668;SDS011;29384;42.028;21.388;2022-07-10T08:04:31;7.45;;;1.02;;
42668;SDS011;29384;42.028;21.388;2022-07-10T08:06:57;1.75;;;1.05;;
42668;SDS011;29384;42.028;21.388;2022-07-10T08:09:22;0.93;;;0.80;;
42668;SDS011;29384;42.028;21.388;2022-07-10T08:11:48;1.48;;;0.70;;
42668;SDS011;29384;42.028;21.388;2022-07-10T08:14:13;1.23;;;0.95;;
42668;SDS011;29384;42.028;21.388;2022-07-10T08:16:39;3.55;;;0.77;;
42668;SDS011;29384;42.028;21.388;2022-07-10T08:19:05;1.20;;;1.10;;
42668;SDS011;29384;42.028;21.388;2022-07-10T08:21:31;12.68;;;1.27;;
42668;SDS011;29384;42.028;21.388;2022-07-10T08:23:56;0.60;;;0.60;;
42668;SDS011;29384;42.028;21.388;2022-07-10T08:26:22;6.38;;;1.45;;
42668;SDS011;29384;42.028;21.388;2022-07-10T08:28:48;2.35;;;1.48;;
42668;SDS011;29384;42.028;21.388;2022-07-10T08:31:13;2.08;;;0.85;;
42668;SDS011;29384;42.028;21.388;2022-07-10T08:33:39;0.40;;;0.40;;
42668;SDS011;29384;42.028;21.388;2022-07-10T08:36:04;2.05;;;1.00;;
42668;SDS011;29384;42.028;21.388;2022-07-10T08:38:30;2.63;;;1.10;;
42668;SDS011;29384;42.028;21.388;2022-07-10T08:40:56;1.60;;;1.10;;
42668;SDS011;29384;42.028;21.388;2022-07-10T08:43:23;2.95;;;0.80;;
42668;SDS011;29384;42.028;21.388;2022-07-10T08:45:53;1.08;;;0.77;;
42668;SDS011;29384;42.028;21.388;2022-07-10T08:48:21;3.45;;;0.88;;
42668;SDS011;29384;42.028;21.388;2022-07-10T08:50:48;7.20;;;0.95;;
42668;SDS011;29384;42.028;21.388;2022-07-10T08:53:24;5.15;;;1.98;;
42668;SDS011;29384;42.028;21.388;2022-07-10T08:55:55;1.50;;;1.17;;
42668;SDS011;29384;42.028;21.388;2022-07-10T08:58:22;1.15;;;1.15;;
42668;SDS011;29384;42.028;21.388;2022-07-10T09:00:48;1.13;;;0.75;;
42668;SDS011;29384;42.028;21.388;2022-07-10T09:03:14;4.50;;;1.50;;
42668;SDS011;29384;42.028;21.388;2022-07-10T09:05:39;1.05;;;0.93;;
42668;SDS011;29384;42.028;21.388;2022-07-10T09:08:20;2.75;;;1.05;;
42668;SDS011;29384;42.028;21.388;2022-07-10T09:10:49;0.60;;;0.60;;
42668;SDS011;29384;42.028;21.388;2022-07-10T09:13:16;2.75;;;0.70;;
42668;SDS011;29384;42.028;21.388;2022-07-10T09:15:47;2.85;;;1.17;;
42668;SDS011;29384;42.028;21.388;2022-07-10T09:18:17;0.70;;;0.70;;
42668;SDS011;29384;42.028;21.388;2022-07-10T09:20:44;0.90;;;0.70;;
42668;SDS011;29384;42.028;21.388;2022-07-10T09:25:47;1.27;;;0.90;;
42668;SDS011;29384;42.028;21.388;2022-07-10T09:28:15;5.57;;;1.00;;
42668;SDS011;29384;42.028;21.388;2022-07-10T09:30:42;2.10;;;0.60;;
42668;SDS011;29384;42.028;21.388;2022-07-10T09:41:14;0.80;;;0.80;;
42668;SDS011;29384;42.028;21.388;2022-07-10T09:43:50;0.82;;;0.82;;
42668;SDS011;29384;42.028;21.388;2022-07-10T09:46:21;1.15;;;0.85;;
42668;SDS011;29384;42.028;21.388;2022-07-10T09:51:53;0.70;;;0.70;;
42668;SDS011;29384;42.028;21.388;2022-07-10T09:54:18;2.60;;;0.95;;
42668;SDS011;29384;42.028;21.388;2022-07-10T09:56:45;0.85;;;0.50;;
42668;SDS011;29384;42.028;21.388;2022-07-10T09:59:16;2.80;;;1.42;;
42668;SDS011;29384;42.028;21.388;2022-07-10T10:01:43;0.70;;;0.70;;
42668;SDS011;29384;42.028;21.388;2022-07-10T10:04:17;3.88;;;1.25;;
42668;SDS011;29384;42.028;21.388;2022-07-10T10:06:52;1.70;;;0.90;;
42668;SDS011;29384;42.028;21.388;2022-07-10T10:11:47;0.57;;;0.50;;
42668;SDS011;29384;42.028;21.388;2022-07-10T10:14:18;1.38;;;0.90;;
42668;SDS011;29384;42.028;21.388;2022-07-10T10:16:45;0.93;;;0.93;;
42668;SDS011;29384;42.028;21.388;2022-07-10T10:19:12;3.70;;;1.00;;
42668;SDS011;29384;42.028;21.388;2022-07-10T10:21:58;1.02;;;0.68;;
42668;SDS011;29384;42.028;21.388;2022-07-10T10:24:25;7.57;;;0.80;;
42668;SDS011;29384;42.028;21.388;2022-07-10T10:26:51;0.63;;;0.63;;
42668;SDS011;29384;42.028;21.388;2022-07-10T10:29:17;0.82;;;0.70;;
42668;SDS011;29384;42.028;21.388;2022-07-10T10:31:43;0.95;;;0.60;;
42668;SDS011;29384;42.028;21.388;2022-07-10T10:34:09;0.82;;;0.77;;
42668;SDS011;29384;42.028;21.388;2022-07-10T10:39:15;4.30;;;1.48;;
42668;SDS011;29384;42.028;21.388;2022-07-10T10:41:53;2.22;;;0.82;;
42668;SDS011;29384;42.028;21.388;2022-07-10T10:44:20;0.60;;;0.60;;
42668;SDS011;29384;42.028;21.388;2022-07-10T10:49:22;0.90;;;0.52;;
42668;SDS011;29384;42.028;21.388;2022-07-10T10:54:30;0.50;;;0.50;;
42668;SDS011;29384;42.028;21.388;2022-07-10T10:57:12;2.25;;;0.65;;
42668;SDS011;29384;42.028;21.388;2022-07-10T10:59:48;1.75;;;0.77;;
42668;SDS011;29384;42.028;21.388;2022-07-10T11:04:45;0.63;;;0.63;;
42668;SDS011;29384;42.028;21.388;2022-07-10T11:07:11;2.22;;;1.10;;
42668;SDS011;29384;42.028;21.388;2022-07-10T11:09:37;1.52;;;0.95;;
42668;SDS011;29384;42.028;21.388;2022-07-10T11:14:33;0.70;;;0.70;;
42668;SDS011;29384;42.028;21.388;2022-07-10T11:17:01;0.52;;;0.52;;
42668;SDS011;29384;42.028;21.388;2022-07-10T11:19:28;0.55;;;0.55;;
42668;SDS011;29384;42.028;21.388;2022-07-10T11:22:06;2.25;;;0.50;;
42668;SDS011;29384;42.028;21.388;2022-07-10T11:24:39;5.15;;;0.60;;
42668;SDS011;29384;42.028;21.388;2022-07-10T11:29:56;2.38;;;0.60;;
42668;SDS011;29384;42.028;21.388;2022-07-10T11:32:22;1.20;;;1.10;;
42668;SDS011;29384;42.028;21.388;2022-07-10T11:34:48;1.40;;;0.70;;
42668;SDS011;29384;42.028;21.388;2022-07-10T11:37:17;0.88;;;0.52;;
42668;SDS011;29384;42.028;21.388;2022-07-10T11:39:42;1.08;;;0.85;;
42668;SDS011;29384;42.028;21.388;2022-07-10T11:42:08;0.75;;;0.75;;
42668;SDS011;29384;42.028;21.388;2022-07-10T11:44:34;0.52;;;0.52;;
42668;SDS011;29384;42.028;21.388;2022-07-10T11:47:00;1.10;;;0.40;;
42668;SDS011;29384;42.028;21.388;2022-07-10T11:49:28;0.77;;;0.77;;
42668;SDS011;29384;42.028;21.388;2022-07-10T11:51:53;0.90;;;0.50;;
42668;SDS011;29384;42.028;21.388;2022-07-10T11:54:21;0.60;;;0.60;;
42668;SDS011;29384;42.028;21.388;2022-07-10T11:56:47;0.50;;;0.50;;
42668;SDS011;29384;42.028;21.388;2022-07-10T11:59:15;7.03;;;0.70;;
42668;SDS011;29384;42.028;21.388;2022-07-10T12:01:45;0.40;;;0.40;;
42668;SDS011;29384;42.028;21.388;2022-07-10T12:04:13;1.05;;;0.50;;
42668;SDS011;29384;42.028;21.388;2022-07-10T12:06:46;0.88;;;0.75;;
42668;SDS011;29384;42.028;21.388;2022-07-10T12:09:13;1.85;;;0.98;;
42668;SDS011;29384;42.028;21.388;2022-07-10T12:11:40;2.15;;;0.40;;
42668;SDS011;29384;42.028;21.388;2022-07-10T12:14:19;0.73;;;0.73;;
42668;SDS011;29384;42.028;21.388;2022-07-10T12:16:49;3.22;;;0.95;;
42668;SDS011;29384;42.028;21.388;2022-07-10T12:19:17;0.60;;;0.60;;
42668;SDS011;29384;42.028;21.388;2022-07-10T12:21:49;5.70;;;1.80;;
42668;SDS011;29384;42.028;21.388;2022-07-10T12:24:16;5.38;;;0.55;;
42668;SDS011;29384;42.028;21.388;2022-07-10T12:26:44;2.65;;;0.50;;
42668;SDS011;29384;42.028;21.388;2022-07-10T12:31:44;1.30;;;0.47;;
42668;SDS011;29384;42.028;21.388;2022-07-10T12:34:12;1.23;;;1.10;;
42668;SDS011;29384;42.028;21.388;2022-07-10T12:39:22;1.40;;;0.43;;
42668;SDS011;29384;42.028;21.388;2022-07-10T12:47:16;0.30;;;0.30;;
42668;SDS011;29384;42.028;21.388;2022-07-10T12:49:53;5.85;;;0.80;;
42668;SDS011;29384;42.028;21.388;2022-07-10T12:55:09;0.55;;;0.30;;
42668;SDS011;29384;42.028;21.388;2022-07-10T12:57:45;0.55;;;0.55;;
42668;SDS011;29384;42.028;21.388;2022-07-10T13:00:12;0.60;;;0.60;;
42668;SDS011;29384;42.028;21.388;2022-07-10T13:02:38;0.75;;;0.43;;
42668;SDS011;29384;42.028;21.388;2022-07-10T13:05:04;0.45;;;0.45;;
42668;SDS011;29384;42.028;21.388;2022-07-10T13:07:35;1.33;;;0.98;;
42668;SDS011;29384;42.028;21.388;2022-07-10T13:10:03;1.60;;;0.60;;
42668;SDS011;29384;42.028;21.388;2022-07-10T13:12:32;2.47;;;0.82;;
42668;SDS011;29384;42.028;21.388;2022-07-10T13:14:58;1.52;;;0.65;;
42668;SDS011;29384;42.028;21.388;2022-07-10T13:17:24;0.55;;;0.55;;
42668;SDS011;29384;42.028;21.388;2022-07-10T13:19:50;1.00;;;0.40;;
42668;SDS011;29384;42.028;21.388;2022-07-10T13:22:16;0.52;;;0.52;;
42668;SDS011;29384;42.028;21.388;2022-07-10T13:24:42;1.48;;;0.70;;
42668;SDS011;29384;42.028;21.388;2022-07-10T13:27:08;0.57;;;0.57;;
42668;SDS011;29384;42.028;21.388;2022-07-10T13:29:33;0.82;;;0.82;;
42668;SDS011;29384;42.028;21.388;2022-07-10T13:31:59;1.75;;;1.48;;
42668;SDS011;29384;42.028;21.388;2022-07-10T13:34:25;0.60;;;0.60;;
42668;SDS011;29384;42.028;21.388;2022-07-10T13:36:50;0.55;;;0.40;;
42668;SDS011;29384;42.028;21.388;2022-07-10T13:39:16;2.15;;;1.73;;
42668;SDS011;29384;42.028;21.388;2022-07-10T13:41:42;1.23;;;0.88;;
42668;SDS011;29384;42.028;21.388;2022-07-10T13:44:07;0.52;;;0.52;;
42668;SDS011;29384;42.028;21.388;2022-07-10T13:46:33;1.02;;;0.65;;
42668;SDS011;29384;42.028;21.388;2022-07-10T13:48:59;10.52;;;0.90;;
42668;SDS011;29384;42.028;21.388;2022-07-10T13:51:24;1.40;;;0.68;;
42668;SDS011;29384;42.028;21.388;2022-07-10T13:53:50;1.85;;;0.90;;
42668;SDS011;29384;42.028;21.388;2022-07-10T13:56:15;0.68;;;0.68;;
42668;SDS011;29384;42.028;21.388;2022-07-10T13:58:42;0.73;;;0.73;;
42668;SDS011;29384;42.028;21.388;2022-07-10T14:01:07;2.10;;;1.10;;
42668;SDS011;29384;42.028;21.388;2022-07-10T14:03:33;4.13;;;0.90;;
42668;SDS011;29384;42.028;21.388;2022-07-10T14:05:58;0.70;;;0.70;;
42668;SDS011;29384;42.028;21.388;2022-07-10T14:08:24;1.05;;;1.05;;
42668;SDS011;29384;42.028;21.388;2022-07-10T14:10:50;2.83;;;1.02;;
42668;SDS011;29384;42.028;21.388;2022-07-10T14:13:16;2.97;;;0.73;;
42668;SDS011;29384;42.028;21.388;2022-07-10T14:15:42;1.67;;;0.47;;
42668;SDS011;29384;42.028;21.388;2022-07-10T14:18:09;0.77;;;0.77;;
42668;SDS011;29384;42.028;21.388;2022-07-10T14:20:36;6.55;;;1.10;;
42668;SDS011;29384;42.028;21.388;2022-07-10T14:23:20;7.63;;;1.40;;
42668;SDS011;29384;42.028;21.388;2022-07-10T14:25:45;1.67;;;1.02;;
42668;SDS011;29384;42.028;21.388;2022-07-10T14:28:11;2.13;;;0.85;;
42668;SDS011;29384;42.028;21.388;2022-07-10T14:30:38;0.50;;;0.50;;
42668;SDS011;29384;42.028;21.388;2022-07-10T14:33:06;0.50;;;0.50;;
42668;SDS011;29384;42.028;21.388;2022-07-10T14:35:32;2.40;;;1.08;;
42668;SDS011;29384;42.028;21.388;2022-07-10T14:37:57;2.70;;;0.57;;
42668;SDS011;29384;42.028;21.388;2022-07-10T14:40:23;0.43;;;0.40;;
42668;SDS011;29384;42.028;21.388;2022-07-10T14:42:48;2.53;;;0.50;;
42668;SDS011;29384;42.028;21.388;2022-07-10T14:45:13;3.65;;;1.17;;
42668;SDS011;29384;42.028;21.388;2022-07-10T14:47:39;1.08;;;0.80;;
42668;SDS011;29384;42.028;21.388;2022-07-10T14:50:04;0.60;;;0.60;;
42668;SDS011;29384;42.028;21.388;2022-07-10T14:52:30;0.90;;;0.73;;
42668;SDS011;29384;42.028;21.388;2022-07-10T14:54:57;13.45;;;1.40;;
42668;SDS011;29384;42.028;21.388;2022-07-10T14:57:22;2.00;;;1.33;;
42668;SDS011;29384;42.028;21.388;2022-07-10T14:59:48;0.93;;;0.93;;
42668;SDS011;29384;42.028;21.388;2022-07-10T15:02:13;3.25;;;0.90;;
42668;SDS011;29384;42.028;21.388;2022-07-10T15:04:39;0.98;;;0.70;;
42668;SDS011;29384;42.028;21.388;2022-07-10T15:07:04;0.93;;;0.93;;
42668;SDS011;29384;42.028;21.388;2022-07-10T15:09:30;0.30;;;0.30;;
42668;SDS011;29384;42.028;21.388;2022-07-10T15:11:56;1.48;;;1.05;;
42668;SDS011;29384;42.028;21.388;2022-07-10T15:14:21;2.95;;;0.63;;
42668;SDS011;29384;42.028;21.388;2022-07-10T15:16:47;0.98;;;0.73;;
42668;SDS011;29384;42.028;21.388;2022-07-10T15:19:12;1.95;;;1.42;;